KFNL/FNL METAR and TAF weather

Enter ICAO airport designator
Station Type Date Time Source
KFNL METAR 2021/09/23 16:56 UTC NOAA

KFNL 231656Z VRB05KT 10SM CLR 22/M02 A3015 RMK AO2 SLP159 T02221022


Station Type Date Time Source
KFNL Decoded METAR 2021/09/23 16:56 UTC NOAA

Fort Collins/Loveland, Fort Collins-Loveland Municipal Airport, CO, United States (KFNL) 40-27N 105-01W
Sep 23, 2021 - 12:56 PM EDT / 2021.09.23 1656 UTC
Wind: Variable at 6 MPH (5 KT):0
Visibility: 10 mile(s):0
Sky conditions: clear
Temperature: 72.0 F (22.2 C)
Dew Point: 28.0 F (-2.2 C)
Relative Humidity: 19%
Pressure (altimeter): 30.15 in. Hg (1020 hPa)
ob: KFNL 231656Z VRB05KT 10SM CLR 22/M02 A3015 RMK AO2 SLP159 T02221022
cycle: 17

Station Type Date Time Source
KFNL TAF UTC NOAA

Error!

Example: see airport list